createdAt,value
2018-05-25T00:00:44.633Z,0.00
2018-05-25T00:01:44.675Z,0.00
2018-05-25T00:02:44.631Z,0.00
2018-05-25T00:03:44.650Z,0.00
2018-05-25T00:04:44.605Z,0.00
2018-05-25T00:05:46.343Z,0.00
2018-05-25T00:06:44.684Z,0.00
2018-05-25T00:07:44.627Z,0.00
2018-05-25T00:08:47.579Z,0.00
2018-05-25T00:09:44.735Z,0.00
2018-05-25T00:10:44.621Z,0.00
2018-05-25T00:11:44.623Z,0.00
2018-05-25T00:12:44.667Z,0.00
2018-05-25T00:13:44.651Z,0.00
2018-05-25T00:14:44.691Z,0.00
2018-05-25T00:15:44.631Z,0.00
2018-05-25T00:16:44.631Z,0.00
2018-05-25T00:17:44.685Z,0.00
2018-05-25T00:18:44.664Z,0.00
2018-05-25T00:19:44.700Z,0.00
2018-05-25T00:20:44.656Z,0.00
2018-05-25T00:21:44.641Z,0.00
2018-05-25T00:22:44.684Z,0.00
2018-05-25T00:23:44.644Z,0.00
2018-05-25T00:24:44.661Z,0.00
2018-05-25T00:25:44.647Z,0.00
2018-05-25T00:26:44.653Z,0.00
2018-05-25T00:27:44.673Z,0.00
2018-05-25T00:28:44.661Z,0.00
2018-05-25T00:29:44.653Z,0.00
2018-05-25T00:30:44.684Z,0.00
2018-05-25T00:31:44.653Z,0.00
2018-05-25T00:32:44.672Z,0.00
2018-05-25T00:33:44.698Z,0.00
2018-05-25T00:34:44.660Z,0.00
2018-05-25T00:35:44.730Z,0.00
2018-05-25T00:36:44.663Z,0.00
2018-05-25T02:43:03.210Z,0.00
2018-05-25T02:44:03.209Z,0.00
2018-05-25T02:45:57.136Z,0.00
2018-05-25T02:46:57.232Z,0.00
2018-05-25T02:48:55.233Z,0.00
2018-05-25T02:49:55.319Z,0.00
2018-05-25T02:51:52.279Z,0.00
2018-05-25T02:52:50.243Z,0.00
2018-05-25T02:53:53.136Z,0.00
2018-05-25T02:54:50.154Z,0.00
2018-05-25T02:55:50.304Z,0.00
2018-05-25T02:56:50.240Z,4.00
2018-05-25T02:59:20.627Z,0.00
2018-05-25T03:01:38.968Z,0.00
2018-05-25T03:04:17.195Z,4.00
2018-05-25T03:05:15.208Z,4.00
2018-05-25T03:06:15.237Z,0.00
2018-05-25T03:07:15.252Z,4.00
2018-05-25T03:10:23.862Z,4.00
2018-05-25T03:12:37.030Z,4.00
2018-05-25T03:13:35.612Z,8.00
2018-05-25T03:14:52.565Z,8.00
2018-05-25T03:17:01.940Z,8.00
2018-05-25T03:18:01.685Z,8.00
2018-05-25T03:19:03.282Z,12.00
2018-05-25T03:20:01.756Z,12.00
2018-05-25T03:21:01.726Z,8.00
2018-05-25T03:22:01.749Z,12.00
2018-05-25T03:23:01.887Z,12.00
2018-05-25T03:24:01.643Z,12.00
2018-05-25T03:25:01.878Z,12.00
2018-05-25T03:26:02.234Z,12.00
2018-05-25T03:27:04.268Z,16.00
2018-05-25T03:29:23.819Z,20.00
2018-05-25T03:30:23.644Z,20.00
2018-05-25T03:31:23.589Z,24.00
2018-05-25T03:32:31.631Z,24.00
2018-05-25T03:34:17.065Z,28.00
2018-05-25T03:35:17.051Z,32.00
2018-05-25T03:36:17.088Z,28.00
2018-05-25T03:37:17.083Z,32.00
2018-05-25T03:38:16.999Z,40.00
2018-05-25T03:39:17.050Z,40.00
2018-05-25T03:40:17.037Z,44.00
2018-05-25T03:41:17.041Z,48.00
2018-05-25T03:42:17.106Z,52.00
2018-05-25T03:43:17.696Z,52.00
2018-05-25T03:44:17.202Z,56.00
2018-05-25T03:45:55.225Z,60.00
2018-05-25T03:46:17.120Z,60.00
2018-05-25T03:47:16.991Z,64.00
2018-05-25T03:48:17.069Z,60.00
2018-05-25T03:49:17.275Z,64.00
2018-05-25T03:50:17.178Z,64.00
2018-05-25T03:51:24.135Z,68.00
2018-05-25T03:53:18.961Z,80.00
2018-05-25T03:54:14.060Z,88.00
2018-05-25T03:55:14.096Z,92.00
2018-05-25T03:56:14.271Z,100.00
2018-05-25T03:58:42.363Z,112.00
2018-05-25T03:59:37.186Z,116.00
2018-05-25T04:00:37.136Z,120.00
2018-05-25T04:03:10.101Z,132.00
2018-05-25T04:04:10.066Z,140.00
2018-05-25T04:05:10.621Z,148.00
2018-05-25T04:06:26.596Z,156.00
2018-05-25T04:07:11.579Z,160.00
2018-05-25T04:08:18.118Z,156.00
2018-05-25T04:10:03.444Z,148.00
2018-05-25T04:11:03.487Z,148.00
2018-05-25T04:12:56.401Z,208.00
2018-05-25T04:13:56.433Z,248.00
2018-05-25T04:14:56.316Z,272.00
2018-05-25T04:15:56.289Z,300.00
2018-05-25T04:16:56.281Z,336.00
2018-05-25T04:19:25.310Z,396.00
2018-05-25T04:20:33.657Z,408.00
2018-05-25T04:21:24.066Z,420.00
2018-05-25T04:22:23.926Z,420.00
2018-05-25T04:23:23.975Z,412.00
2018-05-25T04:24:23.975Z,404.00
2018-05-25T04:25:23.968Z,388.00
2018-05-25T04:26:23.903Z,368.00
2018-05-25T04:27:23.988Z,376.00
2018-05-25T04:28:24.084Z,404.00
2018-05-25T04:29:26.923Z,440.00
2018-05-25T04:30:32.077Z,460.00
2018-05-25T04:32:18.467Z,556.00
2018-05-25T04:33:18.385Z,628.00
2018-05-25T04:35:10.975Z,704.00
2018-05-25T04:36:10.824Z,728.00
2018-05-25T04:37:10.801Z,748.00
2018-05-25T04:38:10.799Z,764.00
2018-05-25T04:39:10.863Z,776.00
2018-05-25T04:40:11.028Z,776.00
2018-05-25T04:41:11.042Z,748.00
2018-05-25T04:42:11.038Z,716.00
2018-05-25T04:43:11.495Z,724.00
2018-05-25T04:44:17.952Z,756.00
2018-05-25T04:46:05.617Z,804.00
2018-05-25T04:47:24.792Z,824.00
2018-05-25T04:49:04.704Z,876.00
2018-05-25T04:51:29.132Z,956.00
2018-05-25T04:52:29.197Z,976.00
2018-05-25T04:53:29.168Z,996.00
2018-05-25T04:54:29.101Z,996.00
2018-05-25T04:55:29.148Z,972.00
2018-05-25T04:56:29.209Z,936.00
2018-05-25T04:57:29.146Z,896.00
2018-05-25T04:58:29.178Z,852.00
2018-05-25T04:59:29.122Z,844.00
2018-05-25T05:00:29.137Z,856.00
2018-05-25T05:01:29.201Z,860.00
2018-05-25T05:02:29.168Z,840.00
2018-05-25T05:03:29.114Z,816.00
2018-05-25T05:04:29.127Z,780.00
2018-05-25T05:05:29.186Z,736.00
2018-05-25T05:06:29.128Z,684.00
2018-05-25T05:07:29.122Z,644.00
2018-05-25T05:08:29.139Z,616.00
2018-05-25T05:09:29.131Z,588.00
2018-05-25T05:10:29.137Z,572.00
2018-05-25T05:11:29.161Z,560.00
2018-05-25T05:12:29.159Z,560.00
2018-05-25T05:13:29.137Z,568.00
2018-05-25T05:14:29.163Z,584.00
2018-05-25T05:15:29.136Z,608.00
2018-05-25T05:16:29.140Z,624.00
2018-05-25T05:17:29.145Z,652.00
2018-05-25T05:18:29.149Z,680.00
2018-05-25T05:19:29.148Z,724.00
2018-05-25T05:20:29.164Z,764.00
2018-05-25T05:21:29.151Z,784.00
2018-05-25T05:22:29.158Z,796.00
2018-05-25T05:23:29.179Z,808.00
2018-05-25T05:24:29.181Z,808.00
2018-05-25T05:25:29.168Z,816.00
2018-05-25T05:26:29.190Z,824.00
2018-05-25T05:27:29.246Z,824.00
2018-05-25T05:28:37.372Z,808.00
2018-05-25T05:30:23.904Z,772.00
2018-05-25T05:31:23.851Z,772.00
2018-05-25T05:32:23.847Z,792.00
2018-05-25T05:33:23.923Z,824.00
2018-05-25T05:35:47.106Z,892.00
2018-05-25T05:36:46.962Z,904.00
2018-05-25T05:38:48.481Z,944.00
2018-05-25T05:41:29.334Z,1040.00
2018-05-25T05:44:38.553Z,1360.00
2018-05-25T05:46:58.384Z,1376.00
2018-05-25T05:51:39.019Z,1168.00
2018-05-25T05:52:51.858Z,1224.00
2018-05-25T05:53:41.773Z,1308.00
2018-05-25T05:54:47.279Z,1384.00
2018-05-25T05:56:48.109Z,1376.00
2018-05-25T05:57:33.484Z,1328.00
2018-05-25T05:58:32.848Z,1260.00
2018-05-25T05:59:34.454Z,1196.00
2018-05-25T06:00:43.130Z,1176.00
2018-05-25T06:02:26.340Z,1180.00
2018-05-25T06:03:26.229Z,1164.00
2018-05-25T06:05:19.357Z,1056.00
2018-05-25T06:06:19.146Z,940.00
2018-05-25T06:08:12.572Z,732.00
2018-05-25T06:09:12.546Z,700.00
2018-05-25T06:10:12.523Z,728.00
2018-05-25T06:11:12.546Z,780.00
2018-05-25T06:12:12.535Z,784.00
2018-05-25T06:13:12.522Z,800.00
2018-05-25T06:14:12.539Z,840.00
2018-05-25T06:15:12.531Z,892.00
2018-05-25T06:16:12.539Z,880.00
2018-05-25T06:17:12.533Z,876.00
2018-05-25T06:18:12.544Z,856.00
2018-05-25T06:19:12.542Z,812.00
2018-05-25T06:20:12.548Z,780.00
2018-05-25T06:21:12.549Z,752.00
2018-05-25T06:22:12.550Z,708.00
2018-05-25T06:23:12.556Z,640.00
2018-05-25T06:24:12.558Z,584.00
2018-05-25T06:25:14.545Z,556.00
2018-05-25T06:26:12.561Z,536.00
2018-05-25T06:27:12.564Z,528.00
2018-05-25T06:28:12.569Z,536.00
2018-05-25T06:29:12.577Z,532.00
2018-05-25T06:30:12.573Z,544.00
2018-05-25T06:31:12.583Z,584.00
2018-05-25T06:32:12.637Z,636.00
2018-05-25T06:33:12.614Z,696.00
2018-05-25T06:34:12.611Z,712.00
2018-05-25T06:35:12.588Z,704.00
2018-05-25T06:36:12.590Z,684.00
2018-05-25T06:37:12.591Z,696.00
2018-05-25T06:38:12.594Z,680.00
2018-05-25T06:39:12.598Z,648.00
2018-05-25T06:40:12.602Z,612.00
2018-05-25T06:41:12.606Z,608.00
2018-05-25T06:42:12.609Z,612.00
2018-05-25T06:43:12.614Z,656.00
2018-05-25T06:44:12.613Z,668.00
2018-05-25T06:45:12.668Z,660.00
2018-05-25T06:46:12.620Z,664.00
2018-05-25T06:47:12.641Z,680.00
2018-05-25T06:48:12.629Z,676.00
2018-05-25T06:49:12.629Z,680.00
2018-05-25T06:50:12.633Z,692.00
2018-05-25T06:51:14.733Z,696.00
2018-05-25T06:52:12.635Z,704.00
2018-05-25T06:53:12.655Z,720.00
2018-05-25T06:54:12.640Z,732.00
2018-05-25T06:55:12.714Z,716.00
2018-05-25T06:56:12.698Z,708.00
2018-05-25T06:57:12.664Z,704.00
2018-05-25T06:58:12.765Z,700.00
2018-05-25T06:59:12.783Z,684.00
2018-05-25T07:00:13.680Z,672.00
2018-05-25T07:01:12.685Z,684.00
2018-05-25T07:03:39.063Z,776.00
2018-05-25T07:04:39.026Z,768.00
2018-05-25T07:05:38.929Z,756.00
2018-05-25T07:06:38.957Z,772.00
2018-05-25T07:07:38.933Z,776.00
2018-05-25T07:08:38.952Z,816.00
2018-05-25T07:09:38.944Z,832.00
2018-05-25T07:10:39.015Z,844.00
2018-05-25T07:13:53.493Z,944.00
2018-05-25T07:14:56.494Z,960.00
2018-05-25T07:17:03.884Z,1056.00
2018-05-25T07:17:41.596Z,1072.00
2018-05-25T07:26:16.450Z,844.00
2018-05-25T07:28:58.891Z,808.00
2018-05-25T07:39:15.088Z,680.00
2018-05-25T07:42:34.519Z,768.00
2018-05-25T07:43:27.422Z,776.00
2018-05-25T07:45:20.740Z,936.00
2018-05-25T07:46:20.835Z,956.00
2018-05-25T07:48:14.146Z,1020.00
2018-05-25T07:49:14.145Z,1092.00
2018-05-25T07:51:08.041Z,1156.00
2018-05-25T07:52:08.041Z,1176.00
2018-05-25T07:54:01.084Z,1264.00
2018-05-25T07:55:01.002Z,1300.00
2018-05-25T07:56:01.052Z,1256.00
2018-05-25T07:57:02.100Z,1244.00
2018-05-25T07:58:01.442Z,1344.00
2018-05-25T07:59:00.827Z,1648.00
2018-05-25T08:00:00.835Z,2392.00
2018-05-25T08:01:00.838Z,3284.00
2018-05-25T08:02:00.834Z,3564.00
2018-05-25T08:03:00.840Z,3416.00
2018-05-25T08:04:00.841Z,3924.00
2018-05-25T08:05:00.888Z,4388.00
2018-05-25T08:06:00.852Z,4368.00
2018-05-25T08:07:00.849Z,4736.00
2018-05-25T08:08:00.853Z,5048.00
2018-05-25T08:09:00.861Z,5480.00
2018-05-25T08:10:00.857Z,4944.00
2018-05-25T08:11:00.865Z,5820.00
2018-05-25T08:12:00.884Z,8088.00
2018-05-25T08:13:00.871Z,9784.00
2018-05-25T08:14:00.875Z,9204.00
2018-05-25T08:15:00.906Z,8092.00
2018-05-25T08:16:00.883Z,9572.00
2018-05-25T08:17:00.887Z,8640.00
2018-05-25T08:18:00.893Z,4680.00
2018-05-25T08:19:00.898Z,5496.00
2018-05-25T08:20:00.901Z,7608.00
2018-05-25T08:21:00.909Z,8008.00
2018-05-25T08:22:00.944Z,9500.00
2018-05-25T08:23:00.941Z,8072.00
2018-05-25T08:24:00.921Z,6852.00
2018-05-25T08:25:00.934Z,5604.00
2018-05-25T08:26:00.931Z,5116.00
2018-05-25T08:27:00.943Z,4708.00
2018-05-25T08:28:00.946Z,4376.00
2018-05-25T08:29:00.955Z,3680.00
2018-05-25T08:30:00.963Z,3312.00
2018-05-25T08:31:00.964Z,3356.00
2018-05-25T08:32:01.024Z,3504.00
2018-05-25T08:33:00.977Z,2960.00
2018-05-25T08:34:08.147Z,2376.00
2018-05-25T08:35:54.039Z,2232.00
2018-05-25T08:36:53.909Z,2048.00
2018-05-25T08:38:46.833Z,1488.00
2018-05-25T08:39:46.778Z,1340.00
2018-05-25T08:57:25.029Z,1856.00
2018-05-25T08:58:24.953Z,1856.00
2018-05-25T09:00:18.302Z,1764.00
2018-05-25T09:01:18.344Z,1656.00
2018-05-25T09:03:11.168Z,1536.00
2018-05-25T09:04:11.158Z,1644.00
2018-05-25T09:06:04.128Z,1824.00
2018-05-25T09:07:04.084Z,1952.00
2018-05-25T09:08:57.382Z,2008.00
2018-05-25T09:09:57.403Z,2200.00
2018-05-25T09:11:50.348Z,2560.00
2018-05-25T09:12:50.181Z,2660.00
2018-05-25T09:14:43.114Z,2792.00
2018-05-25T09:15:43.106Z,2860.00
2018-05-25T09:17:36.001Z,2624.00
2018-05-25T09:18:36.002Z,2336.00
2018-05-25T09:20:29.357Z,2456.00
2018-05-25T09:21:29.525Z,2524.00
2018-05-25T09:23:22.795Z,2904.00
2018-05-25T09:24:22.815Z,2808.00
2018-05-25T09:26:16.384Z,3596.00
2018-05-25T09:27:16.276Z,4512.00
2018-05-25T09:29:09.993Z,4816.00
2018-05-25T09:30:09.956Z,4984.00
2018-05-25T09:32:03.868Z,5088.00
2018-05-25T09:33:03.924Z,5264.00
2018-05-25T09:34:56.868Z,5532.00
2018-05-25T09:35:57.896Z,5176.00
2018-05-25T09:36:56.788Z,5320.00
2018-05-25T09:37:56.819Z,6144.00
2018-05-25T09:38:56.792Z,5796.00
2018-05-25T09:39:57.771Z,5856.00
2018-05-25T09:40:56.996Z,5296.00
2018-05-25T09:41:57.076Z,5008.00
2018-05-25T09:44:33.991Z,5728.00
2018-05-25T09:45:47.607Z,5068.00
2018-05-25T09:47:52.905Z,4988.00
2018-05-25T09:48:55.000Z,5096.00
2018-05-25T09:51:02.981Z,5184.00
2018-05-25T09:55:19.128Z,5528.00
2018-05-25T09:55:59.487Z,6032.00
2018-05-25T09:57:00.106Z,5128.00
2018-05-25T09:58:00.225Z,4884.00
2018-05-25T09:58:59.387Z,4584.00
2018-05-25T10:00:19.797Z,4856.00
2018-05-25T10:01:54.491Z,5068.00
2018-05-25T10:02:54.252Z,5744.00
2018-05-25T10:03:54.274Z,5624.00
2018-05-25T10:04:54.935Z,5416.00
2018-05-25T10:05:54.418Z,5152.00
2018-05-25T10:07:07.171Z,5212.00
2018-05-25T10:09:19.443Z,5328.00
2018-05-25T10:10:19.354Z,5216.00
2018-05-25T10:11:19.269Z,4888.00
2018-05-25T10:12:20.956Z,4588.00
2018-05-25T10:13:41.481Z,4388.00
2018-05-25T10:14:20.542Z,4224.00
2018-05-25T10:15:30.331Z,4096.00
2018-05-25T10:16:19.389Z,3976.00
2018-05-25T10:17:19.268Z,3812.00
2018-05-25T10:18:35.358Z,3572.00
2018-05-25T10:19:19.296Z,3324.00
2018-05-25T10:20:21.494Z,3148.00
2018-05-25T10:21:19.496Z,3092.00
2018-05-25T10:22:31.662Z,3092.00
2018-05-25T10:23:22.607Z,3108.00
2018-05-25T10:24:22.568Z,3208.00
2018-05-25T10:25:22.271Z,3344.00
2018-05-25T10:26:19.320Z,3464.00
2018-05-25T10:27:19.331Z,3604.00
2018-05-25T10:28:19.349Z,3696.00
2018-05-25T10:29:19.336Z,3648.00
2018-05-25T10:30:19.359Z,3588.00
2018-05-25T10:31:19.376Z,3848.00
2018-05-25T10:32:19.361Z,3760.00
2018-05-25T10:35:01.733Z,4716.00
2018-05-25T10:36:01.801Z,4872.00
2018-05-25T10:37:03.687Z,6064.00
2018-05-25T10:38:01.685Z,5944.00
2018-05-25T10:39:01.649Z,6020.00
2018-05-25T10:40:01.655Z,5936.00
2018-05-25T10:41:01.684Z,5572.00
2018-05-25T10:42:01.670Z,5196.00
2018-05-25T10:43:01.676Z,5228.00
2018-05-25T10:44:02.284Z,4312.00
2018-05-25T10:45:01.685Z,4160.00
2018-05-25T10:46:01.704Z,4632.00
2018-05-25T10:47:01.703Z,4860.00
2018-05-25T10:48:01.704Z,5220.00
2018-05-25T10:49:01.735Z,4264.00
2018-05-25T10:50:01.733Z,5284.00
2018-05-25T10:51:01.722Z,4924.00
2018-05-25T10:52:01.725Z,5228.00
2018-05-25T10:53:01.736Z,4268.00
2018-05-25T10:54:01.744Z,5148.00
2018-05-25T10:55:01.764Z,4988.00
2018-05-25T10:56:01.771Z,4984.00
2018-05-25T10:57:01.757Z,4800.00
2018-05-25T10:58:01.772Z,4652.00
2018-05-25T10:59:01.770Z,4004.00
2018-05-25T11:00:01.776Z,3996.00
2018-05-25T11:01:01.835Z,4236.00
2018-05-25T11:02:01.792Z,4580.00
2018-05-25T11:03:01.801Z,5000.00
2018-05-25T11:04:01.802Z,5052.00
2018-05-25T11:05:01.802Z,4636.00
2018-05-25T11:06:01.813Z,3272.00
2018-05-25T11:07:01.820Z,4356.00
2018-05-25T11:08:01.825Z,3716.00
2018-05-25T11:09:01.834Z,4596.00
2018-05-25T11:10:01.898Z,3872.00
2018-05-25T11:11:01.845Z,4456.00
2018-05-25T11:12:01.861Z,4468.00
2018-05-25T11:13:01.857Z,4344.00
2018-05-25T11:14:01.863Z,3668.00
2018-05-25T11:15:01.868Z,3092.00
2018-05-25T11:16:01.874Z,3424.00
2018-05-25T11:17:01.887Z,4760.00
2018-05-25T11:18:01.887Z,4648.00
2018-05-25T11:19:01.893Z,3724.00
2018-05-25T11:20:01.904Z,4200.00
2018-05-25T11:21:01.948Z,4328.00
2018-05-25T11:22:01.910Z,4788.00
2018-05-25T11:23:01.920Z,5008.00
2018-05-25T11:24:01.929Z,4752.00
2018-05-25T11:25:01.931Z,5108.00
2018-05-25T11:26:01.938Z,4904.00
2018-05-25T11:27:01.992Z,4756.00
2018-05-25T11:28:01.950Z,4696.00
2018-05-25T11:29:01.961Z,4516.00
2018-05-25T11:30:03.896Z,4712.00
2018-05-25T11:31:01.970Z,4760.00
2018-05-25T11:32:01.980Z,4528.00
2018-05-25T11:33:01.984Z,4052.00
2018-05-25T11:34:02.040Z,3756.00
2018-05-25T11:35:02.021Z,3460.00
2018-05-25T11:36:09.191Z,3316.00
2018-05-25T11:37:54.979Z,2568.00
2018-05-25T11:38:54.901Z,2792.00
2018-05-25T11:40:47.878Z,2916.00
2018-05-25T11:41:47.860Z,2936.00
2018-05-25T11:43:40.721Z,3852.00
2018-05-25T11:44:40.742Z,3004.00
2018-05-25T11:45:40.704Z,3364.00
2018-05-25T11:46:40.741Z,3420.00
2018-05-25T11:47:40.792Z,3496.00
2018-05-25T11:48:40.757Z,4576.00
2018-05-25T11:49:40.719Z,4556.00
2018-05-25T11:50:40.767Z,4732.00
2018-05-25T11:51:40.723Z,4680.00
2018-05-25T11:52:41.291Z,4720.00
2018-05-25T11:53:43.337Z,3732.00
2018-05-25T11:54:40.738Z,3836.00
2018-05-25T11:55:40.769Z,3912.00
2018-05-25T11:56:40.752Z,4804.00
2018-05-25T11:57:42.835Z,4472.00
2018-05-25T11:58:40.763Z,4340.00
2018-05-25T11:59:40.769Z,3544.00
2018-05-25T12:00:40.780Z,3516.00
2018-05-25T12:01:40.784Z,3196.00
2018-05-25T12:02:40.787Z,2884.00
2018-05-25T12:03:40.795Z,3108.00
2018-05-25T12:04:40.802Z,2872.00
2018-05-25T12:05:41.735Z,2612.00
2018-05-25T12:06:40.859Z,2644.00
2018-05-25T12:07:40.818Z,2844.00
2018-05-25T12:08:40.853Z,2896.00
2018-05-25T12:09:40.845Z,2832.00
2018-05-25T12:10:40.910Z,2828.00
2018-05-25T12:11:40.842Z,2828.00
2018-05-25T12:12:40.849Z,2868.00
2018-05-25T12:13:40.862Z,2864.00
2018-05-25T12:14:40.886Z,2792.00
2018-05-25T12:15:40.869Z,2684.00
2018-05-25T12:16:40.870Z,2584.00
2018-05-25T12:17:40.880Z,2468.00
2018-05-25T12:18:40.884Z,2336.00
2018-05-25T12:19:40.959Z,2220.00
2018-05-25T12:20:40.903Z,2168.00
2018-05-25T12:21:40.906Z,2120.00
2018-05-25T12:22:40.970Z,2068.00
2018-05-25T12:23:40.916Z,2044.00
2018-05-25T12:24:40.924Z,1988.00
2018-05-25T12:25:40.941Z,1904.00
2018-05-25T12:26:40.936Z,1916.00
2018-05-25T12:27:40.940Z,1992.00
2018-05-25T12:28:40.984Z,1988.00
2018-05-25T12:29:40.950Z,1972.00
2018-05-25T12:30:40.956Z,1944.00
2018-05-25T12:31:40.982Z,1932.00
2018-05-25T12:32:40.989Z,1920.00
2018-05-25T12:33:40.976Z,1908.00
2018-05-25T12:34:41.754Z,1896.00
2018-05-25T12:35:40.982Z,1896.00
2018-05-25T12:36:40.991Z,1892.00
2018-05-25T12:37:41.004Z,1892.00
2018-05-25T12:38:41.004Z,1888.00
2018-05-25T12:39:41.015Z,1880.00
2018-05-25T12:40:41.020Z,1876.00
2018-05-25T12:41:41.022Z,1876.00
2018-05-25T12:42:41.023Z,1860.00
2018-05-25T12:43:41.759Z,1836.00
2018-05-25T12:44:41.049Z,1800.00
2018-05-25T12:45:49.858Z,1796.00
2018-05-25T12:47:37.696Z,1784.00
2018-05-25T12:48:35.961Z,1756.00
2018-05-25T12:49:35.845Z,1736.00
2018-05-25T12:50:35.793Z,1700.00
2018-05-25T12:51:35.820Z,1660.00
2018-05-25T12:52:35.801Z,1608.00
2018-05-25T12:53:35.807Z,1584.00
2018-05-25T12:54:35.816Z,1576.00
2018-05-25T12:55:35.815Z,1568.00
2018-05-25T12:56:35.821Z,1576.00
2018-05-25T12:57:35.823Z,1600.00
2018-05-25T12:58:35.840Z,1624.00
2018-05-25T12:59:35.860Z,1640.00
2018-05-25T13:00:35.844Z,1644.00
2018-05-25T13:01:35.884Z,1616.00
2018-05-25T13:02:35.853Z,1596.00
2018-05-25T13:03:35.865Z,1580.00
2018-05-25T13:04:36.104Z,1544.00
2018-05-25T13:05:35.868Z,1504.00
2018-05-25T13:06:35.876Z,1472.00
2018-05-25T13:07:35.880Z,1460.00
2018-05-25T13:08:35.885Z,1452.00
2018-05-25T13:09:35.893Z,1444.00
2018-05-25T13:10:35.906Z,1452.00
2018-05-25T13:11:35.899Z,1448.00
2018-05-25T13:12:35.909Z,1456.00
2018-05-25T13:13:35.911Z,1472.00
2018-05-25T13:14:35.917Z,1492.00
2018-05-25T13:15:35.926Z,1512.00
2018-05-25T13:16:35.928Z,1540.00
2018-05-25T13:17:36.053Z,1556.00
2018-05-25T13:18:35.947Z,1576.00
2018-05-25T13:19:35.944Z,1584.00
2018-05-25T13:20:35.951Z,1596.00
2018-05-25T13:21:35.952Z,1616.00
2018-05-25T13:22:35.960Z,1640.00
2018-05-25T13:23:35.963Z,1664.00
2018-05-25T13:24:35.979Z,1688.00
2018-05-25T13:25:35.976Z,1720.00
2018-05-25T13:26:36.000Z,1756.00
2018-05-25T13:27:35.989Z,1784.00
2018-05-25T13:28:35.991Z,1820.00
2018-05-25T13:29:35.999Z,1860.00
2018-05-25T13:30:36.000Z,1880.00
2018-05-25T13:31:36.009Z,1912.00
2018-05-25T13:32:36.013Z,1960.00
2018-05-25T13:33:36.024Z,2004.00
2018-05-25T13:34:36.029Z,2040.00
2018-05-25T13:35:36.026Z,2072.00
2018-05-25T13:36:36.082Z,2100.00
2018-05-25T13:37:36.043Z,2120.00
2018-05-25T13:38:36.043Z,2132.00
2018-05-25T13:39:36.047Z,2128.00
2018-05-25T13:40:36.056Z,2120.00
2018-05-25T13:41:36.059Z,2116.00
2018-05-25T13:42:36.065Z,2108.00
2018-05-25T13:43:36.070Z,2088.00
2018-05-25T13:44:36.079Z,2060.00
2018-05-25T13:45:36.081Z,2036.00
2018-05-25T13:46:36.092Z,2020.00
2018-05-25T13:47:36.089Z,2008.00
2018-05-25T13:48:36.100Z,1996.00
2018-05-25T13:49:36.100Z,1984.00
2018-05-25T13:50:36.106Z,1968.00
2018-05-25T13:51:36.118Z,1944.00
2018-05-25T13:52:36.140Z,1912.00
2018-05-25T13:53:36.125Z,1912.00
2018-05-25T13:54:36.128Z,1948.00
2018-05-25T13:55:36.137Z,1948.00
2018-05-25T13:56:39.004Z,1924.00
2018-05-25T13:57:36.150Z,1884.00
2018-05-25T13:58:36.204Z,1824.00
2018-05-25T13:59:36.159Z,1800.00
2018-05-25T14:00:37.005Z,1868.00
2018-05-25T14:01:36.166Z,1940.00
2018-05-25T14:02:36.197Z,1964.00
2018-05-25T14:03:36.183Z,1968.00
2018-05-25T14:04:36.181Z,1964.00
2018-05-25T14:05:36.201Z,1956.00
2018-05-25T14:06:36.194Z,1944.00
2018-05-25T14:07:36.201Z,1944.00
2018-05-25T14:08:37.010Z,1972.00
2018-05-25T14:09:36.212Z,1976.00
2018-05-25T14:10:36.216Z,1964.00
2018-05-25T14:11:36.228Z,1944.00
2018-05-25T14:12:36.277Z,1928.00
2018-05-25T14:13:41.428Z,1932.00
2018-05-25T14:14:44.488Z,1940.00
2018-05-25T14:16:29.199Z,1908.00
2018-05-25T14:17:29.220Z,1908.00
2018-05-25T14:19:22.082Z,1916.00
2018-05-25T14:20:22.064Z,1912.00
2018-05-25T14:22:14.956Z,1880.00
2018-05-25T14:23:14.913Z,1864.00
2018-05-25T14:24:14.919Z,1880.00
2018-05-25T14:25:14.929Z,1884.00
2018-05-25T14:26:21.464Z,1912.00
2018-05-25T14:27:14.926Z,1948.00
2018-05-25T14:28:14.939Z,1980.00
2018-05-25T14:29:14.984Z,2016.00
2018-05-25T14:30:14.969Z,2084.00
2018-05-25T14:31:14.949Z,2212.00
2018-05-25T14:32:14.953Z,2248.00
2018-05-25T14:33:14.967Z,2288.00
2018-05-25T14:34:16.343Z,2232.00
2018-05-25T14:35:14.972Z,2340.00
2018-05-25T14:36:14.975Z,2572.00
2018-05-25T14:37:14.991Z,2588.00
2018-05-25T14:38:14.987Z,2460.00
2018-05-25T14:39:14.998Z,2280.00
2018-05-25T14:40:15.026Z,2208.00
2018-05-25T14:41:23.255Z,2156.00
2018-05-25T14:43:09.666Z,2036.00
2018-05-25T14:44:09.336Z,1956.00
2018-05-25T14:46:02.257Z,1808.00
2018-05-25T14:47:02.202Z,1760.00
2018-05-25T14:48:55.126Z,1708.00
2018-05-25T14:49:55.101Z,1712.00
2018-05-25T14:51:48.124Z,1736.00
2018-05-25T14:52:48.095Z,1724.00
2018-05-25T14:54:40.993Z,1676.00
2018-05-25T14:55:40.915Z,1676.00
2018-05-25T14:57:34.784Z,1656.00
2018-05-25T14:58:34.761Z,1628.00
2018-05-25T14:59:34.791Z,1604.00
2018-05-25T15:00:34.780Z,1584.00
2018-05-25T15:01:34.923Z,1564.00
2018-05-25T15:02:34.775Z,1540.00
2018-05-25T15:03:34.780Z,1532.00
2018-05-25T15:04:34.810Z,1532.00
2018-05-25T15:05:36.315Z,1532.00
2018-05-25T15:06:34.821Z,1532.00
2018-05-25T15:07:34.803Z,1532.00
2018-05-25T15:08:34.806Z,1528.00
2018-05-25T15:09:34.821Z,1540.00
2018-05-25T15:10:34.817Z,1516.00
2018-05-25T15:11:34.889Z,1480.00
2018-05-25T15:12:34.852Z,1460.00
2018-05-25T15:13:34.839Z,1460.00
2018-05-25T15:14:34.847Z,1456.00
2018-05-25T15:15:34.849Z,1452.00
2018-05-25T15:16:34.859Z,1452.00
2018-05-25T15:17:34.993Z,1452.00
2018-05-25T15:18:34.870Z,1432.00
2018-05-25T15:19:34.897Z,1384.00
2018-05-25T15:20:34.898Z,1336.00
2018-05-25T15:21:34.901Z,1288.00
2018-05-25T15:22:34.954Z,1240.00
2018-05-25T15:23:34.904Z,1208.00
2018-05-25T15:24:34.966Z,1196.00
2018-05-25T15:25:34.972Z,1192.00
2018-05-25T15:26:35.000Z,1208.00
2018-05-25T15:27:34.965Z,1232.00
2018-05-25T15:28:34.927Z,1256.00
2018-05-25T15:29:34.983Z,1276.00
2018-05-25T15:30:34.972Z,1284.00
2018-05-25T15:31:35.002Z,1276.00
2018-05-25T15:32:35.077Z,1248.00
2018-05-25T15:33:34.981Z,1200.00
2018-05-25T15:34:34.989Z,1124.00
2018-05-25T15:35:34.963Z,1072.00
2018-05-25T15:36:34.977Z,1044.00
2018-05-25T15:37:34.971Z,1020.00
2018-05-25T15:38:34.977Z,996.00
2018-05-25T15:39:34.984Z,968.00
2018-05-25T15:40:34.988Z,940.00
2018-05-25T15:41:34.994Z,912.00
2018-05-25T15:42:34.999Z,900.00
2018-05-25T15:43:35.009Z,888.00
2018-05-25T15:44:35.011Z,876.00
2018-05-25T15:45:35.021Z,872.00
2018-05-25T15:46:35.034Z,860.00
2018-05-25T15:47:35.027Z,852.00
2018-05-25T15:48:42.180Z,860.00
2018-05-25T15:50:27.968Z,860.00
2018-05-25T15:51:27.924Z,860.00
2018-05-25T15:53:20.853Z,868.00
2018-05-25T15:54:20.805Z,884.00
2018-05-25T15:56:14.257Z,892.00
2018-05-25T15:57:14.284Z,908.00
2018-05-25T15:59:07.731Z,940.00
2018-05-25T16:00:07.704Z,952.00
2018-05-25T16:01:08.474Z,968.00
2018-05-25T16:02:07.681Z,976.00
2018-05-25T16:03:07.741Z,984.00
2018-05-25T16:04:07.690Z,992.00
2018-05-25T16:05:07.694Z,1008.00
2018-05-25T16:06:07.698Z,1028.00
2018-05-25T16:07:07.709Z,1036.00
2018-05-25T16:08:07.710Z,1024.00
2018-05-25T16:09:07.775Z,1004.00
2018-05-25T16:10:07.724Z,972.00
2018-05-25T16:11:07.725Z,932.00
2018-05-25T16:12:07.731Z,912.00
2018-05-25T16:13:07.737Z,976.00
2018-05-25T16:14:07.764Z,960.00
2018-05-25T16:15:07.785Z,1044.00
2018-05-25T16:16:07.777Z,928.00
2018-05-25T16:17:07.756Z,928.00
2018-05-25T16:18:07.796Z,944.00
2018-05-25T16:19:07.772Z,960.00
2018-05-25T16:20:07.780Z,1008.00
2018-05-25T16:21:07.808Z,1032.00
2018-05-25T16:22:07.780Z,1024.00
2018-05-25T16:23:07.787Z,996.00
2018-05-25T16:24:07.802Z,964.00
2018-05-25T16:25:07.801Z,932.00
2018-05-25T16:26:07.800Z,880.00
2018-05-25T16:27:07.808Z,840.00
2018-05-25T16:28:07.812Z,808.00
2018-05-25T16:29:07.816Z,804.00
2018-05-25T16:30:07.824Z,800.00
2018-05-25T16:31:07.849Z,808.00
2018-05-25T16:32:07.842Z,812.00